Time;durP1;ratioP1;P1;durP2;ratioP2;P2;SDS_P1;SDS_P2;PMS_P1;PMS_P2;Temp;Humidity;BMP_temperature;BMP_pressure;BME280_temperature;BME280_humidity;BME280_pressure;Samples;Min_cycle;Max_cycle;Signal;HPM_P1;HPM_P2
2022/11/02 00:01:27;;;;;;;5.45;0.30;;;13.60;99.90;;;;;;5024286;28;20106;-87
2022/11/02 00:03:52;;;;;;;3.72;0.30;;;13.60;99.90;;;;;;5047254;28;20025;-77
2022/11/02 00:06:18;;;;;;;5.10;0.30;;;13.60;99.90;;;;;;5047683;28;20108;-79
2022/11/02 00:08:44;;;;;;;6.20;0.30;;;13.60;99.90;;;;;;5030074;28;20542;-76
2022/11/02 00:11:10;;;;;;;3.85;0.30;;;13.60;99.90;;;;;;5029455;28;20036;-77
2022/11/02 00:13:36;;;;;;;3.03;0.65;;;13.50;99.90;;;;;;5030030;28;20048;-90
2022/11/02 00:16:04;;;;;;;2.95;0.30;;;13.50;99.90;;;;;;5048161;28;20025;-77
2022/11/02 00:18:31;;;;;;;4.07;0.35;;;13.40;99.90;;;;;;5047864;28;20036;-87
2022/11/02 00:20:57;;;;;;;3.03;0.25;;;13.40;99.90;;;;;;5047733;28;20028;-76
2022/11/02 00:23:23;;;;;;;2.40;0.20;;;13.40;99.90;;;;;;5045158;28;20029;-76
2022/11/02 00:25:51;;;;;;;5.78;0.30;;;13.40;99.90;;;;;;5047892;28;20392;-81
2022/11/02 00:28:17;;;;;;;2.75;0.20;;;13.40;99.90;;;;;;5029931;28;20033;-76
2022/11/02 00:30:43;;;;;;;2.20;0.20;;;13.50;99.90;;;;;;5029109;28;20037;-88
2022/11/02 00:33:09;;;;;;;3.42;0.30;;;13.50;99.90;;;;;;5028304;28;20398;-77
2022/11/02 00:35:35;;;;;;;2.67;0.20;;;13.50;99.90;;;;;;5013138;28;20033;-91
2022/11/02 00:38:03;;;;;;;1.73;0.20;;;13.50;99.90;;;;;;5046939;28;20060;-89
2022/11/02 00:40:28;;;;;;;5.85;0.50;;;13.50;99.90;;;;;;5046986;28;20083;-81
2022/11/02 00:42:54;;;;;;;3.80;0.25;;;13.50;99.90;;;;;;5029704;28;20025;-86
2022/11/02 00:45:21;;;;;;;4.72;0.32;;;13.60;99.90;;;;;;5029393;28;20124;-89
2022/11/02 00:47:47;;;;;;;3.72;0.30;;;13.60;99.90;;;;;;5029617;28;20057;-90
2022/11/02 00:50:12;;;;;;;3.40;0.30;;;13.60;99.90;;;;;;5036838;28;20444;-76
2022/11/02 00:52:39;;;;;;;4.80;0.40;;;13.60;99.90;;;;;;5029776;28;20016;-78
2022/11/02 00:55:07;;;;;;;3.78;0.30;;;13.50;99.90;;;;;;5029345;28;20065;-78
2022/11/02 00:57:35;;;;;;;3.90;0.30;;;13.50;99.90;;;;;;5015550;28;20029;-76
2022/11/02 01:00:00;;;;;;;6.05;0.40;;;13.50;99.90;;;;;;5047380;28;20083;-88
2022/11/02 01:02:27;;;;;;;6.07;0.30;;;13.50;99.90;;;;;;5047064;28;20035;-77
2022/11/02 01:04:52;;;;;;;3.88;0.20;;;13.50;99.90;;;;;;5047575;28;20108;-76
2022/11/02 01:07:18;;;;;;;8.63;0.98;;;13.50;99.90;;;;;;5011904;28;20112;-76
2022/11/02 01:09:44;;;;;;;7.15;0.45;;;13.60;99.90;;;;;;5049421;28;20021;-76
2022/11/02 01:12:10;;;;;;;7.40;0.40;;;13.60;99.90;;;;;;5032486;28;20109;-76
2022/11/02 01:14:36;;;;;;;6.82;0.40;;;13.40;99.90;;;;;;5032205;28;20040;-83
2022/11/02 01:17:03;;;;;;;4.57;0.55;;;13.20;99.90;;;;;;5049470;28;20021;-76
2022/11/02 01:19:29;;;;;;;7.80;0.38;;;13.10;99.90;;;;;;5048918;28;20497;-76
2022/11/02 01:21:55;;;;;;;8.52;0.30;;;13.10;99.90;;;;;;5021523;28;20041;-77
2022/11/02 01:24:21;;;;;;;5.35;0.90;;;13.10;99.90;;;;;;5051613;28;20020;-81
2022/11/02 01:26:51;;;;;;;5.10;0.30;;;13.10;99.90;;;;;;5033908;28;20040;-84
2022/11/02 01:29:17;;;;;;;4.07;0.30;;;13.00;99.90;;;;;;5032510;28;20351;-80
2022/11/02 01:31:42;;;;;;;5.05;0.30;;;13.00;99.90;;;;;;5050714;28;20032;-78
2022/11/02 01:34:10;;;;;;;3.75;0.50;;;12.90;99.90;;;;;;5015711;28;20024;-86
2022/11/02 01:36:36;;;;;;;3.63;0.30;;;12.80;99.90;;;;;;5048993;28;20034;-76
2022/11/02 01:39:02;;;;;;;3.80;0.25;;;12.80;99.90;;;;;;5032794;28;20035;-76
2022/11/02 01:41:27;;;;;;;2.17;0.20;;;12.70;99.90;;;;;;5048664;28;20040;-83
2022/11/02 01:43:57;;;;;;;4.80;0.50;;;12.60;99.90;;;;;;5049568;28;20579;-77
2022/11/02 01:46:36;;;;;;;3.00;0.20;;;12.60;99.90;;;;;;5015754;28;20120;-87
2022/11/02 01:49:12;;;;;;;3.35;0.28;;;12.60;99.90;;;;;;5033361;28;20021;-81
2022/11/02 01:51:49;;;;;;;3.25;0.40;;;12.60;99.90;;;;;;5033019;28;20053;-84
2022/11/02 01:54:19;;;;;;;2.60;0.20;;;12.50;99.90;;;;;;5031482;28;20048;-86
2022/11/02 01:56:55;;;;;;;;;;;12.50;99.90;;;;;;5032294;28;20374;-76
2022/11/02 01:59:26;;;;;;;3.75;0.40;;;12.60;99.90;;;;;;5015432;28;20054;-77
2022/11/02 02:01:53;;;;;;;2.60;0.20;;;12.60;99.90;;;;;;5032007;28;20037;-77
2022/11/02 02:04:19;;;;;;;4.32;1.05;;;12.60;99.90;;;;;;5028733;28;20520;-85
2022/11/02 02:06:46;;;;;;;4.60;0.28;;;12.70;99.90;;;;;;5050397;28;20029;-77
2022/11/02 02:09:13;;;;;;;4.35;0.40;;;12.70;99.90;;;;;;5032362;28;20028;-77
2022/11/02 02:11:39;;;;;;;4.25;0.30;;;12.80;99.90;;;;;;5032186;28;20036;-76
2022/11/02 02:14:10;;;;;;;6.03;0.30;;;12.90;99.90;;;;;;5050137;28;20036;-80
2022/11/02 02:17:31;;;;;;;4.30;0.20;;;12.90;99.90;;;;;;5031850;28;20032;-76
2022/11/02 02:20:41;;;;;;;6.07;0.45;;;13.10;99.90;;;;;;5031715;28;20056;-76
2022/11/02 02:23:38;;;;;;;5.07;0.30;;;13.20;99.90;;;;;;4953245;28;20039;-86
2022/11/02 02:26:25;;;;;;;6.03;0.20;;;13.20;99.90;;;;;;4968651;28;20415;-76
2022/11/02 02:28:55;;;;;;;1.58;0.10;;;12.70;99.90;;;;;;4968605;28;20039;-86
2022/11/02 02:31:29;;;;;;;1.73;0.20;;;12.50;99.90;;;;;;4967756;28;20431;-88
2022/11/02 02:34:08;;;;;;;1.25;0.10;;;12.40;99.90;;;;;;4950419;28;20167;-76
2022/11/02 02:36:45;;;;;;;3.83;0.10;;;12.20;99.90;;;;;;4968437;28;20030;-84
2022/11/02 02:39:22;;;;;;;2.20;0.10;;;12.10;99.90;;;;;;4967770;28;20030;-87
2022/11/02 02:42:14;;;;;;;3.42;0.10;;;12.10;99.90;;;;;;4951971;28;20102;-77
2022/11/02 02:44:45;;;;;;;0.80;0.10;;;12.10;99.90;;;;;;4952201;28;20054;-85
2022/11/02 02:47:15;;;;;;;1.65;0.20;;;12.00;99.90;;;;;;4956913;28;20057;-78
2022/11/02 02:49:50;;;;;;;4.10;0.20;;;12.00;99.90;;;;;;4967788;28;20031;-86
2022/11/02 02:52:18;;;;;;;2.50;0.20;;;11.90;99.90;;;;;;4967299;28;20027;-78
2022/11/02 02:54:46;;;;;;;1.63;0.05;;;11.90;99.90;;;;;;5006352;28;20094;-75
2022/11/02 02:57:20;;;;;;;1.40;0.10;;;11.90;99.90;;;;;;5029937;28;20492;-82
2022/11/02 02:59:47;;;;;;;4.72;0.20;;;11.90;99.90;;;;;;5046791;28;20087;-90
2022/11/02 03:02:25;;;;;;;2.08;0.20;;;11.90;99.90;;;;;;5030510;28;20120;-83
2022/11/02 03:04:52;;;;;;;1.58;0.17;;;11.90;99.90;;;;;;5012519;28;20120;-81
2022/11/02 03:07:28;;;;;;;2.90;0.20;;;12.10;99.90;;;;;;5030235;28;20108;-77
2022/11/02 03:10:00;;;;;;;1.42;0.20;;;12.30;99.90;;;;;;5014313;28;20123;-76
2022/11/02 03:12:53;;;;;;;2.28;0.20;;;12.20;99.90;;;;;;5028737;28;20024;-76
2022/11/02 03:15:51;;;;;;;3.78;0.20;;;12.20;99.90;;;;;;5030789;28;20507;-77
2022/11/02 03:18:34;;;;;;;1.90;0.30;;;12.30;99.90;;;;;;5045027;28;20049;-77
2022/11/02 03:21:07;;;;;;;4.32;0.20;;;12.20;99.90;;;;;;5030524;28;20469;-89
2022/11/02 03:23:50;;;;;;;3.47;0.20;;;12.20;99.90;;;;;;5047065;28;20712;-76
2022/11/02 03:26:29;;;;;;;3.47;0.20;;;12.10;99.90;;;;;;5013743;28;20035;-76
2022/11/02 03:29:11;;;;;;;2.67;0.20;;;12.10;99.90;;;;;;5030751;28;20033;-76
2022/11/02 03:31:49;;;;;;;2.42;0.17;;;12.10;99.90;;;;;;5029804;28;20024;-76
2022/11/02 03:34:27;;;;;;;4.22;0.20;;;12.10;99.90;;;;;;5046949;28;20024;-77
2022/11/02 03:37:10;;;;;;;3.95;0.50;;;12.10;99.90;;;;;;5047467;28;20120;-86
2022/11/02 03:39:40;;;;;;;2.10;0.13;;;12.10;99.90;;;;;;5030650;28;20086;-78
2022/11/02 03:42:12;;;;;;;4.10;0.20;;;12.10;99.90;;;;;;5030774;28;20033;-86
2022/11/02 03:44:39;;;;;;;4.90;0.30;;;12.20;99.90;;;;;;5046638;28;20112;-89
2022/11/02 03:47:11;;;;;;;3.15;0.20;;;12.30;99.90;;;;;;5046659;28;20087;-91
2022/11/02 03:49:39;;;;;;;5.18;0.30;;;12.30;99.90;;;;;;5030553;28;20112;-76
2022/11/02 03:52:10;;;;;;;3.42;0.40;;;12.30;99.90;;;;;;5029659;28;20473;-77
2022/11/02 03:54:43;;;;;;;5.55;0.47;;;12.20;99.90;;;;;;5046950;28;20021;-77
2022/11/02 03:57:18;;;;;;;5.03;0.30;;;12.20;99.90;;;;;;5013122;28;20031;-78
2022/11/02 03:59:43;;;;;;;2.28;0.20;;;12.20;99.90;;;;;;5046910;28;20116;-89
2022/11/02 04:02:12;;;;;;;3.55;0.30;;;12.20;99.90;;;;;;5029931;28;20552;-76
2022/11/02 04:04:51;;;;;;;4.35;0.50;;;12.20;99.90;;;;;;5048527;28;20071;-87
2022/11/02 04:07:24;;;;;;;3.45;0.30;;;12.10;99.90;;;;;;5013205;28;20029;-91
2022/11/02 04:09:50;;;;;;;4.47;0.30;;;12.10;99.90;;;;;;5029650;28;20028;-78
2022/11/02 04:15:01;;;;;;;5.07;0.30;;;12.10;99.90;;;;;;5030281;28;20091;-91
2022/11/02 04:20:13;;;;;;;5.50;0.38;;;11.90;99.90;;;;;;5028150;28;20082;-90
2022/11/02 04:25:24;;;;;;;4.60;0.30;;;11.80;99.90;;;;;;5029128;28;20388;-91
2022/11/02 04:28:07;;;;;;;4.88;0.60;;;11.80;99.90;;;;;;5046364;28;20584;-76
2022/11/02 04:30:34;;;;;;;8.23;0.30;;;11.90;99.90;;;;;;5045673;28;20035;-77
2022/11/02 04:36:02;;;;;;;3.03;0.30;;;11.90;99.90;;;;;;5030017;28;20507;-78
2022/11/02 04:38:41;;;;;;;8.75;0.60;;;11.90;99.90;;;;;;5012938;28;20883;-77
2022/11/02 04:41:42;;;;;;;6.53;0.40;;;11.90;99.90;;;;;;5022022;28;20041;-76
2022/11/02 04:44:14;;;;;;;6.15;0.30;;;11.90;99.90;;;;;;5025226;28;20470;-76
2022/11/02 04:46:43;;;;;;;5.85;0.40;;;12.00;99.90;;;;;;5013470;28;20102;-88
2022/11/02 04:49:10;;;;;;;5.22;0.30;;;12.00;99.90;;;;;;5012636;28;20052;-77
2022/11/02 04:51:39;;;;;;;4.75;0.70;;;12.00;99.90;;;;;;5013281;28;20025;-90
2022/11/02 04:54:06;;;;;;;9.10;0.50;;;11.90;99.90;;;;;;5029576;28;20027;-76
2022/11/02 04:56:32;;;;;;;6.15;0.70;;;12.00;99.90;;;;;;5028588;28;20477;-85
2022/11/02 04:58:59;;;;;;;10.25;0.60;;;12.00;99.90;;;;;;5028552;28;20036;-76
2022/11/02 05:01:27;;;;;;;5.95;0.30;;;12.00;99.90;;;;;;5028414;28;20029;-77
2022/11/02 05:03:54;;;;;;;12.20;0.60;;;12.10;99.90;;;;;;5029412;28;20083;-85
2022/11/02 05:06:22;;;;;;;7.97;0.88;;;12.20;99.90;;;;;;5012125;28;20025;-76
2022/11/02 05:08:49;;;;;;;4.82;0.30;;;12.30;99.90;;;;;;5017421;28;20375;-76
2022/11/02 05:11:15;;;;;;;6.40;0.30;;;12.20;99.90;;;;;;5042857;28;20469;-76
2022/11/02 05:13:41;;;;;;;9.35;0.60;;;12.20;99.90;;;;;;5012204;28;20196;-91
2022/11/02 05:16:10;;;;;;;6.00;0.40;;;12.10;99.90;;;;;;5020048;28;20164;-77
2022/11/02 05:18:36;;;;;;;4.65;0.70;;;12.20;99.90;;;;;;5029132;28;20040;-84
2022/11/02 05:21:02;;;;;;;10.95;0.82;;;12.20;99.90;;;;;;5016422;28;20405;-79
2022/11/02 05:23:29;;;;;;;9.07;0.60;;;12.40;99.90;;;;;;5044070;28;20032;-77
2022/11/02 05:26:02;;;;;;;8.52;0.40;;;12.30;99.90;;;;;;5028036;28;20025;-77
2022/11/02 05:28:30;;;;;;;13.52;0.80;;;12.30;99.90;;;;;;5027739;28;20410;-79
2022/11/02 05:31:01;;;;;;;5.90;0.40;;;12.30;99.90;;;;;;5029252;28;20438;-78
2022/11/02 05:33:29;;;;;;;4.78;0.35;;;12.30;99.90;;;;;;5011860;28;20033;-76
2022/11/02 05:35:57;;;;;;;9.52;0.60;;;12.40;99.90;;;;;;5029963;28;20029;-76
2022/11/02 05:38:24;;;;;;;5.80;0.43;;;12.30;99.90;;;;;;5011526;28;20033;-77
2022/11/02 05:40:55;;;;;;;5.97;0.50;;;12.30;99.90;;;;;;5029232;28;20040;-91
2022/11/02 05:43:22;;;;;;;6.43;0.35;;;12.40;99.90;;;;;;5011695;28;20022;-77
2022/11/02 05:46:00;;;;;;;7.82;0.50;;;12.50;99.90;;;;;;5029214;28;20025;-81
2022/11/02 05:48:30;;;;;;;6.65;0.50;;;12.40;99.90;;;;;;5027408;28;20029;-88
2022/11/02 05:50:57;;;;;;;7.05;0.30;;;12.40;99.90;;;;;;5024338;28;20229;-89
2022/11/02 05:53:23;;;;;;;5.60;0.40;;;12.40;99.90;;;;;;5028860;28;20041;-77
2022/11/02 05:55:49;;;;;;;5.30;0.50;;;12.40;99.90;;;;;;5028116;28;20061;-87
2022/11/02 05:58:15;;;;;;;8.02;0.75;;;12.40;99.90;;;;;;5029143;28;20057;-92
2022/11/02 06:00:40;;;;;;;10.15;0.60;;;12.20;99.90;;;;;;5047249;28;20486;-85
2022/11/02 06:03:06;;;;;;;9.10;0.40;;;12.30;99.90;;;;;;5032078;28;20029;-77
2022/11/02 06:05:32;;;;;;;9.05;0.43;;;12.20;99.90;;;;;;5046877;28;20076;-76
2022/11/02 06:07:59;;;;;;;4.65;0.40;;;12.10;99.90;;;;;;5049916;28;20063;-84
2022/11/02 06:10:29;;;;;;;6.78;0.55;;;12.10;99.90;;;;;;5049821;28;20115;-84
2022/11/02 06:12:59;;;;;;;7.03;0.45;;;12.20;99.90;;;;;;5012839;28;20021;-76
2022/11/02 06:15:25;;;;;;;4.57;0.57;;;12.20;99.90;;;;;;5049347;28;20072;-76
2022/11/02 06:17:50;;;;;;;9.98;0.45;;;12.30;99.90;;;;;;5020611;28;20041;-89
2022/11/02 06:20:16;;;;;;;4.32;0.30;;;12.30;99.90;;;;;;5031622;28;20389;-77
2022/11/02 06:22:42;;;;;;;7.20;0.88;;;12.20;99.90;;;;;;5049889;28;20068;-77
2022/11/02 06:25:09;;;;;;;9.90;0.60;;;12.20;99.90;;;;;;5047568;28;20025;-77
2022/11/02 06:27:35;;;;;;;5.57;0.50;;;12.20;99.90;;;;;;5015081;28;20083;-83
2022/11/02 06:30:02;;;;;;;5.75;0.40;;;12.10;99.90;;;;;;5031574;28;20032;-76
2022/11/02 06:32:28;;;;;;;5.90;0.60;;;12.00;99.90;;;;;;5048713;28;20057;-75
2022/11/02 06:34:54;;;;;;;12.02;0.70;;;12.10;99.90;;;;;;5047174;28;20075;-76
2022/11/02 06:37:19;;;;;;;10.55;0.75;;;12.10;99.90;;;;;;5049520;28;20025;-77
2022/11/02 06:39:45;;;;;;;8.85;0.40;;;12.10;99.90;;;;;;5031055;28;20064;-77
2022/11/02 06:42:11;;;;;;;10.70;0.43;;;12.10;99.90;;;;;;5030714;28;20040;-76
2022/11/02 06:44:36;;;;;;;4.85;0.30;;;12.00;99.90;;;;;;5049389;28;20369;-77
2022/11/02 06:47:02;;;;;;;7.80;0.50;;;12.00;99.90;;;;;;5031045;28;20509;-80
2022/11/02 06:49:28;;;;;;;4.60;0.40;;;12.00;99.90;;;;;;5048444;28;20028;-76
2022/11/02 06:51:53;;;;;;;10.55;0.60;;;12.00;99.90;;;;;;5022336;28;20045;-76
2022/11/02 06:54:19;;;;;;;6.40;0.65;;;12.10;99.90;;;;;;5029638;28;20051;-85
2022/11/02 06:56:45;;;;;;;8.90;0.47;;;12.10;99.90;;;;;;5048360;28;20036;-77
2022/11/02 06:59:10;;;;;;;7.85;0.55;;;12.00;99.90;;;;;;5048561;28;20381;-75
2022/11/02 07:01:36;;;;;;;8.45;0.50;;;12.10;99.90;;;;;;5049351;28;20393;-82
2022/11/02 07:04:02;;;;;;;9.13;0.47;;;12.00;99.90;;;;;;5047025;28;20392;-90
2022/11/02 07:06:28;;;;;;;9.50;0.60;;;11.90;99.90;;;;;;5047984;28;20051;-76
2022/11/02 07:08:54;;;;;;;5.45;0.30;;;11.90;99.90;;;;;;5048660;28;20029;-76
2022/11/02 07:11:20;;;;;;;7.97;0.93;;;11.80;99.90;;;;;;5030451;28;20060;-78
2022/11/02 07:13:46;;;;;;;9.55;0.50;;;11.80;99.90;;;;;;5030074;28;20033;-75
2022/11/02 07:16:12;;;;;;;5.78;0.28;;;11.80;99.90;;;;;;5048187;28;20037;-86
2022/11/02 07:18:37;;;;;;;7.95;0.40;;;11.70;99.90;;;;;;5048633;28;20131;-77
2022/11/02 07:21:03;;;;;;;8.50;0.40;;;11.70;99.90;;;;;;5046309;28;20111;-79
2022/11/02 07:23:29;;;;;;;11.32;0.65;;;11.70;99.90;;;;;;5030364;28;20147;-76
2022/11/02 07:25:55;;;;;;;7.60;0.63;;;11.70;99.90;;;;;;5013864;28;20036;-84
2022/11/02 07:28:20;;;;;;;9.23;0.88;;;11.70;99.90;;;;;;5047464;28;20063;-79
2022/11/02 07:30:46;;;;;;;9.13;0.73;;;11.70;99.90;;;;;;5045267;28;20026;-82
2022/11/02 07:33:12;;;;;;;8.93;0.60;;;11.80;99.90;;;;;;5012496;28;20029;-77
2022/11/02 07:35:38;;;;;;;7.05;0.32;;;11.80;99.90;;;;;;5030506;28;20021;-75
2022/11/02 07:38:05;;;;;;;7.35;0.60;;;11.80;99.90;;;;;;5029747;28;20394;-77
2022/11/02 07:40:33;;;;;;;7.70;0.50;;;11.80;99.90;;;;;;5029185;28;20028;-77
2022/11/02 07:42:59;;;;;;;8.38;0.43;;;11.80;99.90;;;;;;5048075;28;20070;-78
2022/11/02 07:45:50;;;;;;;8.02;0.50;;;11.70;99.90;;;;;;5045408;28;20032;-89
2022/11/02 07:48:16;;;;;;;10.55;0.40;;;11.80;99.90;;;;;;5046570;28;20025;-85
2022/11/02 07:50:42;;;;;;;5.38;0.30;;;12.00;99.90;;;;;;5028865;28;20025;-76
2022/11/02 07:53:08;;;;;;;7.85;0.57;;;12.10;99.90;;;;;;5029203;28;20021;-75
2022/11/02 07:55:34;;;;;;;9.13;0.90;;;12.00;99.90;;;;;;5011737;28;20040;-81
2022/11/02 07:58:04;;;;;;;7.15;0.40;;;12.00;99.90;;;;;;5029093;28;20033;-76
2022/11/02 08:00:32;;;;;;;5.25;0.40;;;12.00;99.90;;;;;;5047589;28;20024;-75
2022/11/02 08:02:59;;;;;;;9.25;0.40;;;11.90;99.90;;;;;;5029632;28;20044;-90
2022/11/02 08:05:27;;;;;;;8.48;0.75;;;11.90;99.90;;;;;;5047143;28;20032;-87
2022/11/02 08:08:00;;;;;;;5.80;0.35;;;11.90;99.90;;;;;;5046087;28;20029;-89
2022/11/02 08:10:27;;;;;;;5.72;0.40;;;12.00;99.90;;;;;;5047143;28;20036;-76
2022/11/02 08:12:53;;;;;;;6.63;0.30;;;12.00;99.90;;;;;;5029222;28;20110;-75
2022/11/02 08:15:19;;;;;;;7.13;0.30;;;12.00;99.90;;;;;;5047549;28;20495;-78
2022/11/02 08:17:45;;;;;;;5.40;0.40;;;12.10;99.90;;;;;;5046562;28;20135;-86
2022/11/02 08:20:11;;;;;;;7.22;0.60;;;12.10;99.90;;;;;;5012225;28;20116;-81
2022/11/02 08:22:38;;;;;;;8.82;0.65;;;12.20;99.90;;;;;;5046195;28;20124;-76
2022/11/02 08:25:05;;;;;;;5.82;0.30;;;12.20;99.90;;;;;;5029624;28;20033;-75
2022/11/02 08:27:30;;;;;;;4.75;0.40;;;12.40;99.90;;;;;;5028042;28;20032;-75
2022/11/02 08:29:56;;;;;;;9.02;0.60;;;12.50;99.90;;;;;;5028852;28;20111;-75
2022/11/02 08:32:22;;;;;;;6.25;0.40;;;12.60;99.90;;;;;;5029588;28;20040;-82
2022/11/02 08:34:47;;;;;;;7.20;0.45;;;12.60;99.90;;;;;;5029300;28;20037;-76
2022/11/02 08:37:13;;;;;;;4.20;0.30;;;12.40;99.90;;;;;;5028934;28;20082;-76
2022/11/02 08:39:38;;;;;;;5.40;0.57;;;12.40;99.90;;;;;;5029515;28;20039;-75
2022/11/02 08:42:04;;;;;;;6.95;0.63;;;12.40;99.90;;;;;;5029915;28;20327;-93
2022/11/02 08:44:30;;;;;;;8.35;0.40;;;12.60;99.90;;;;;;5044076;28;20131;-75
2022/11/02 08:46:56;;;;;;;4.93;0.63;;;12.70;99.90;;;;;;5039589;28;20111;-76
2022/11/02 08:49:21;;;;;;;3.72;0.30;;;12.70;99.90;;;;;;5047168;28;20112;-94
2022/11/02 08:51:47;;;;;;;3.15;0.30;;;12.80;99.90;;;;;;5029207;28;20516;-76
2022/11/02 08:54:13;;;;;;;6.53;0.40;;;12.80;99.90;;;;;;5026034;28;20021;-78
2022/11/02 08:56:39;;;;;;;6.57;0.40;;;12.70;99.90;;;;;;5046678;28;20021;-75
2022/11/02 08:59:04;;;;;;;7.57;1.00;;;12.80;99.90;;;;;;5046787;28;20033;-76
2022/11/02 09:01:30;;;;;;;8.00;0.70;;;12.70;99.90;;;;;;5028827;28;20033;-76
2022/11/02 09:03:56;;;;;;;8.73;0.40;;;12.80;99.90;;;;;;5026751;28;20151;-80
2022/11/02 09:06:21;;;;;;;9.10;0.40;;;12.80;99.90;;;;;;5028075;28;20033;-77
2022/11/02 09:08:47;;;;;;;5.25;0.40;;;12.90;99.90;;;;;;5047636;28;20025;-75
2022/11/02 09:11:13;;;;;;;10.50;0.52;;;13.10;99.90;;;;;;5027111;28;20032;-75
2022/11/02 09:13:38;;;;;;;9.07;0.57;;;12.90;99.90;;;;;;5028483;28;20079;-76
2022/11/02 09:16:05;;;;;;;5.07;0.40;;;13.00;99.90;;;;;;5046994;28;20029;-76
2022/11/02 09:18:31;;;;;;;5.63;0.40;;;13.10;99.90;;;;;;5046698;28;20416;-75
2022/11/02 09:21:00;;;;;;;7.35;0.45;;;13.10;99.90;;;;;;5027200;28;20124;-76
2022/11/02 09:23:26;;;;;;;4.82;0.40;;;13.10;99.90;;;;;;5028831;28;20032;-75
2022/11/02 09:25:52;;;;;;;4.28;0.30;;;13.30;99.90;;;;;;5046355;28;20029;-75
2022/11/02 09:28:18;;;;;;;3.42;0.38;;;13.20;99.90;;;;;;5028265;28;20021;-77
2022/11/02 09:30:44;;;;;;;10.98;0.50;;;13.20;99.90;;;;;;5048873;28;20090;-76
2022/11/02 09:33:10;;;;;;;3.47;0.40;;;13.20;99.90;;;;;;5049417;28;20055;-76
2022/11/02 09:35:38;;;;;;;6.75;0.35;;;13.20;99.90;;;;;;5050275;28;20044;-79
2022/11/02 09:38:04;;;;;;;7.03;0.70;;;13.00;99.90;;;;;;5031765;28;20377;-87
2022/11/02 09:40:45;;;;;;;4.53;0.50;;;13.10;99.90;;;;;;5049902;28;20119;-88
2022/11/02 09:43:27;;;;;;;5.70;0.43;;;13.30;99.90;;;;;;5050553;28;20043;-76
2022/11/02 09:46:00;;;;;;;5.32;0.30;;;13.40;99.90;;;;;;5032446;28;20110;-75
2022/11/02 09:48:41;;;;;;;6.85;0.40;;;13.60;99.90;;;;;;5013240;28;20135;-79
2022/11/02 09:51:23;;;;;;;7.05;0.40;;;13.50;99.90;;;;;;5025714;28;20044;-94
2022/11/02 09:54:06;;;;;;;5.10;0.30;;;13.50;99.90;;;;;;5030940;28;20044;-76
2022/11/02 09:56:34;;;;;;;6.20;0.38;;;13.60;99.90;;;;;;5049137;28;20115;-75
2022/11/02 09:59:03;;;;;;;5.53;0.30;;;13.40;99.90;;;;;;5049164;28;20361;-77
2022/11/02 10:01:46;;;;;;;9.70;0.40;;;13.60;99.90;;;;;;5030520;28;20036;-86
2022/11/02 10:04:40;;;;;;;8.10;0.40;;;13.70;99.90;;;;;;5026738;28;20485;-86
2022/11/02 10:07:32;;;;;;;8.65;0.52;;;13.60;99.90;;;;;;5029480;28;20495;-84
2022/11/02 10:10:15;;;;;;;9.15;0.70;;;13.70;99.90;;;;;;5012307;28;20391;-77
2022/11/02 10:12:44;;;;;;;9.55;1.02;;;13.60;99.90;;;;;;5045730;28;20053;-85
2022/11/02 10:15:32;;;;;;;4.80;0.30;;;13.70;99.90;;;;;;5044155;28;20021;-75
2022/11/02 10:18:01;;;;;;;5.32;0.30;;;13.60;99.90;;;;;;5027770;28;20553;-78
2022/11/02 10:20:54;;;;;;;5.03;0.60;;;13.80;99.90;;;;;;5028181;28;20025;-87
2022/11/02 10:23:32;;;;;;;9.40;0.57;;;13.80;99.90;;;;;;5043051;28;20430;-84
2022/11/02 10:26:00;;;;;;;8.57;0.50;;;13.40;99.90;;;;;;5047236;28;20079;-86
2022/11/02 10:28:29;;;;;;;3.35;0.25;;;13.40;99.90;;;;;;5029667;28;20033;-88
2022/11/02 10:30:56;;;;;;;5.68;0.60;;;13.80;99.90;;;;;;5045525;28;20047;-93
2022/11/02 10:33:27;;;;;;;6.82;0.30;;;14.10;99.90;;;;;;5044661;28;20474;-88
2022/11/02 10:36:23;;;;;;;9.75;1.42;;;14.00;99.90;;;;;;5026839;28;20032;-77
2022/11/02 10:39:44;;;;;;;4.82;0.30;;;13.90;99.90;;;;;;5023538;28;20037;-76
2022/11/02 10:42:13;;;;;;;3.65;0.30;;;13.80;99.90;;;;;;4974721;28;20090;-78
2022/11/02 10:44:44;;;;;;;8.52;0.77;;;13.60;99.90;;;;;;4974247;28;20105;-88
2022/11/02 10:47:14;;;;;;;5.35;0.50;;;13.60;99.90;;;;;;4975179;28;20035;-82
2022/11/02 10:49:51;;;;;;;4.50;0.82;;;13.60;99.90;;;;;;4958122;28;20034;-83
2022/11/02 10:52:17;;;;;;;4.07;0.40;;;13.50;99.90;;;;;;4974371;28;20443;-82
2022/11/02 10:54:43;;;;;;;6.18;0.60;;;13.70;99.90;;;;;;4961456;28;20029;-81
2022/11/02 10:57:13;;;;;;;7.93;0.40;;;13.60;99.90;;;;;;4958832;28;20390;-89
2022/11/02 10:59:39;;;;;;;5.75;0.75;;;13.60;99.90;;;;;;4952509;28;20218;-82
2022/11/02 11:02:13;;;;;;;7.95;0.65;;;13.60;99.90;;;;;;4962382;28;20261;-80
2022/11/02 11:04:41;;;;;;;7.07;0.45;;;13.50;99.90;;;;;;4974845;28;20523;-77
2022/11/02 11:07:20;;;;;;;6.38;0.30;;;13.60;99.90;;;;;;4977043;28;20034;-76
2022/11/02 11:09:50;;;;;;;5.82;0.40;;;13.50;99.90;;;;;;4960679;28;20054;-86
2022/11/02 11:12:37;;;;;;;7.35;0.40;;;13.40;99.90;;;;;;4976886;28;20030;-76
2022/11/02 11:15:05;;;;;;;5.85;0.38;;;13.60;99.90;;;;;;4973766;28;20034;-76
2022/11/02 11:17:39;;;;;;;6.50;0.73;;;13.90;99.90;;;;;;4979694;28;20089;-79
2022/11/02 11:20:31;;;;;;;5.80;0.40;;;13.90;99.90;;;;;;5045353;28;20037;-77
2022/11/02 11:23:26;;;;;;;4.95;0.30;;;14.10;99.90;;;;;;5010164;28;20041;-82
2022/11/02 11:25:56;;;;;;;7.28;0.52;;;14.40;99.90;;;;;;5011829;28;20099;-76
2022/11/02 11:28:50;;;;;;;6.03;0.40;;;14.10;99.90;;;;;;5044263;28;20033;-77
2022/11/02 11:31:17;;;;;;;5.97;0.35;;;14.10;99.90;;;;;;5044732;28;20036;-75
2022/11/02 11:33:55;;;;;;;6.47;0.55;;;14.30;99.90;;;;;;5010465;28;20111;-77
2022/11/02 11:36:33;;;;;;;5.80;0.40;;;14.30;99.90;;;;;;5044437;28;20060;-76
2022/11/02 11:39:06;;;;;;;6.60;0.50;;;14.20;99.90;;;;;;5044093;28;20021;-75
2022/11/02 11:41:33;;;;;;;5.95;0.40;;;14.10;99.90;;;;;;5043040;28;20040;-76
2022/11/02 11:44:01;;;;;;;9.60;0.80;;;14.10;99.90;;;;;;5044361;28;20090;-76
2022/11/02 11:46:47;;;;;;;6.10;0.50;;;14.30;99.90;;;;;;5020333;28;20088;-76
2022/11/02 11:49:24;;;;;;;9.02;0.95;;;14.40;99.90;;;;;;5018221;28;20494;-76
2022/11/02 11:51:52;;;;;;;9.30;0.57;;;14.30;99.90;;;;;;5005342;28;20045;-76
2022/11/02 11:54:27;;;;;;;5.47;0.50;;;14.40;99.90;;;;;;5014480;28;20091;-88
2022/11/02 11:57:14;;;;;;;4.88;0.30;;;14.40;99.90;;;;;;5016508;28;20048;-76
2022/11/02 11:59:42;;;;;;;6.65;0.35;;;14.50;99.90;;;;;;5018277;28;20096;-78
2022/11/02 12:02:37;;;;;;;6.45;0.40;;;14.50;99.90;;;;;;5017291;28;20068;-81
2022/11/02 12:05:17;;;;;;;8.13;0.75;;;14.40;99.90;;;;;;4988543;28;20488;-88
2022/11/02 12:07:56;;;;;;;6.38;0.30;;;14.40;99.90;;;;;;5001269;28;20032;-79
2022/11/02 12:10:46;;;;;;;7.40;0.65;;;14.50;99.90;;;;;;5018848;28;20030;-82
2022/11/02 12:13:24;;;;;;;4.68;0.30;;;14.40;99.90;;;;;;4999823;28;20033;-76
2022/11/02 12:16:14;;;;;;;5.20;0.30;;;14.60;99.90;;;;;;4988168;28;20041;-85
2022/11/02 12:19:11;;;;;;;8.02;0.85;;;14.50;99.90;;;;;;5018580;28;20102;-79
2022/11/02 12:22:04;;;;;;;3.42;0.40;;;14.60;99.90;;;;;;5010454;28;20080;-76
2022/11/02 12:24:52;;;;;;;4.22;0.40;;;14.60;99.90;;;;;;5019132;28;20048;-76
2022/11/02 12:27:59;;;;;;;7.30;0.40;;;14.70;99.90;;;;;;5037640;28;20033;-75
2022/11/02 12:30:57;;;;;;;4.32;0.40;;;14.80;99.90;;;;;;5007577;28;20025;-76
2022/11/02 12:33:47;;;;;;;3.70;0.35;;;14.90;99.90;;;;;;5040575;28;20060;-81
2022/11/02 12:36:34;;;;;;;2.95;0.28;;;14.90;99.90;;;;;;5041344;28;20044;-86
2022/11/02 12:39:39;;;;;;;8.98;0.40;;;14.80;99.90;;;;;;5044265;28;20430;-77
2022/11/02 12:42:22;;;;;;;3.33;0.30;;;14.60;99.90;;;;;;5043772;28;20040;-76
2022/11/02 12:45:23;;;;;;;7.05;0.50;;;14.60;99.90;;;;;;5025055;28;20025;-75
2022/11/02 12:47:59;;;;;;;3.97;0.40;;;14.60;99.90;;;;;;5026238;28;20033;-76
2022/11/02 12:50:59;;;;;;;4.28;0.40;;;14.70;99.90;;;;;;5040389;28;20037;-80
2022/11/02 12:54:03;;;;;;;5.47;0.40;;;14.70;99.90;;;;;;5038895;28;20064;-76
2022/11/02 12:56:32;;;;;;;7.45;0.60;;;14.80;99.90;;;;;;5021625;28;20120;-83
2022/11/02 12:58:59;;;;;;;4.88;0.30;;;14.80;99.90;;;;;;5026417;28;20140;-76
2022/11/02 13:01:45;;;;;;;2.67;0.30;;;14.70;99.90;;;;;;5043055;28;20029;-76
2022/11/02 13:04:17;;;;;;;4.05;0.30;;;14.90;99.90;;;;;;5024634;28;20036;-76
2022/11/02 13:06:50;;;;;;;2.08;0.38;;;14.90;99.90;;;;;;5046566;28;20458;-76
2022/11/02 13:09:26;;;;;;;3.25;0.40;;;15.00;99.90;;;;;;5046433;28;20036;-83
2022/11/02 13:12:15;;;;;;;5.53;0.30;;;15.00;99.90;;;;;;5045837;28;20025;-85
2022/11/02 13:14:47;;;;;;;4.80;0.30;;;15.00;99.90;;;;;;5047161;28;20535;-76
2022/11/02 13:17:25;;;;;;;3.05;0.30;;;15.00;99.90;;;;;;5047552;28;20397;-84
2022/11/02 13:19:56;;;;;;;4.53;0.30;;;15.10;99.90;;;;;;5028938;28;20049;-90
2022/11/02 13:22:37;;;;;;;3.80;0.30;;;15.00;99.90;;;;;;5029834;28;20566;-76